Emden, Germany

3:03 AM CET on February 07, 2016 (GMT +0100)
Eelde | | Change Station
CLOSE
Current Station
Airport
Location: Eelde,
Elevation: 13 ft
Nearby Weather Stations

Elev 13 ft 53.12 °N, 6.58 °E | Updated 8 minutes ago

Clear
Clear
50 °F
Feels Like 50 °F
N
17
Wind Variable Wind from South

Today
High -- | Low -- °F
--% Chance of Precip.
Yesterday
High -- | Low -- °F
Precip. -- in
Pressure 29.39 in
Visibility 6.2 miles
Clouds
Dew Point 39 °F
Humidity 66%
Rainfall 0.00 in
Snow Depth Not available.
8:06 AM 5:25 PM
Waning Crescent, 3% visible
METAR EHGG 070155Z AUTO 17015KT 140V210 9999 NSC 10/04 Q0995
Pressure 29.39 in
Visibility 6.2 miles
Clouds
Dew Point 39 °F
Humidity 66%
Rainfall 0.00 in
Snow Depth Not available.
8:06 AM 5:25 PM
Waning Crescent, 3% visible
METAR EHGG 070155Z AUTO 17015KT 140V210 9999 NSC 10/04 Q0995

10-Day Weather Forecast

Almanac

Astronomy

Feb. 07, 2016 Rise Set
Actual Time
Civil Twilight
Nautical Twilight
Astronomical Twilight
Moon
Length of Visible Light
Length of Day
Tomorrow will be .
, % of the Moon is Illuminated

Today's Extremes

Country Highs Country Lows

Community

WunderPhotos

Upload Photos

1,891,132 photos uploaded!

WunderBlog® & News

Nearby

Air Quality

  Air Quality AQ Index Pollutant
Not available.

Snow Depth

Station Depth Elevation

Earthquake Activity

City Distance Mag. Time & Date
Minimum magnitude displayed is 2.5.

Coastal Water Temperatures

Place Temperature

Stations

Nearby Weather Stations

Station Location Temp. Windchill Dew Point Humidity Wind Precip. Elev Updated Type